createdAt,value
2023-05-01T00:00:33.656Z,101592.48
2023-05-01T00:01:39.045Z,101590.84
2023-05-01T00:02:44.659Z,101596.66
2023-05-01T00:03:50.486Z,101593.17
2023-05-01T00:04:56.600Z,101595.31
2023-05-01T00:06:02.221Z,101598.63
2023-05-01T00:07:07.680Z,101595.09
2023-05-01T00:08:13.053Z,101593.05
2023-05-01T00:09:18.453Z,101590.71
2023-05-01T00:10:23.849Z,101589.59
2023-05-01T00:11:29.261Z,101589.75
2023-05-01T00:12:34.636Z,101593.55
2023-05-01T00:13:40.016Z,101590.94
2023-05-01T00:14:45.485Z,101590
2023-05-01T00:15:50.936Z,101581.42
2023-05-01T00:16:56.659Z,101587.42
2023-05-01T00:18:02.474Z,101586.2
2023-05-01T00:19:08.062Z,101586.2
2023-05-01T00:20:13.417Z,101587.55
2023-05-01T00:21:18.790Z,101582.34
2023-05-01T00:22:24.158Z,101584.03
2023-05-01T00:23:29.522Z,101584.51
2023-05-01T00:24:34.934Z,101582.18
2023-05-01T00:25:40.290Z,101581.34
2023-05-01T00:26:45.647Z,101579.56
2023-05-01T00:27:51.108Z,101576.46
2023-05-01T00:28:56.526Z,101575.28
2023-05-01T00:30:01.899Z,101584.16
2023-05-01T00:31:07.263Z,101576.14
2023-05-01T00:32:12.950Z,101571.7
2023-05-01T00:33:18.465Z,101572.5
2023-05-01T00:34:23.893Z,101573.04
2023-05-01T00:35:29.361Z,101574.6
2023-05-01T00:36:34.788Z,101575.17
2023-05-01T00:37:40.184Z,101572.49
2023-05-01T00:38:45.623Z,101567.48
2023-05-01T00:39:51.061Z,101570.16
2023-05-01T00:40:56.480Z,101572.97
2023-05-01T00:42:01.861Z,101575.36
2023-05-01T00:43:07.244Z,101572.14
2023-05-01T00:44:12.642Z,101572.84
2023-05-01T00:45:18.020Z,101567.61
2023-05-01T00:46:23.526Z,101569.88
2023-05-01T00:47:29.154Z,101560.84
2023-05-01T00:48:34.635Z,101558.28
2023-05-01T00:49:40.040Z,101564.63
2023-05-01T00:50:45.477Z,101559.07
2023-05-01T00:51:50.853Z,101559.42
2023-05-01T00:52:56.222Z,101559.48
2023-05-01T00:54:01.627Z,101553.64
2023-05-01T00:55:07.009Z,101549.53
2023-05-01T00:56:12.400Z,101550.55
2023-05-01T00:57:17.764Z,101557.73
2023-05-01T00:58:23.137Z,101552.21
2023-05-01T00:59:28.548Z,101558.79
2023-05-01T01:00:33.967Z,101551.67
2023-05-01T01:01:39.637Z,101551.67
2023-05-01T01:02:45.173Z,101552.15
2023-05-01T01:03:50.591Z,101553.08
2023-05-01T01:04:56.127Z,101559.91
2023-05-01T01:06:01.779Z,101553.78
2023-05-01T01:07:07.261Z,101548.13
2023-05-01T01:08:12.665Z,101549.88
2023-05-01T01:09:18.038Z,101549.41
2023-05-01T01:10:23.439Z,101551.38
2023-05-01T01:11:28.926Z,101554.89
2023-05-01T01:12:34.390Z,101553.77
2023-05-01T01:13:39.793Z,101554
2023-05-01T01:14:45.177Z,101549.63
2023-05-01T01:15:50.561Z,101549.05
2023-05-01T01:16:56.238Z,101545.6
2023-05-01T01:18:01.857Z,101551.67
2023-05-01T01:19:07.278Z,101545.73
2023-05-01T01:20:12.664Z,101544.39
2023-05-01T01:21:18.125Z,101546.3
2023-05-01T01:22:23.574Z,101553.99
2023-05-01T01:23:29.031Z,101548.56
2023-05-01T01:24:34.406Z,101548.63
2023-05-01T01:25:39.782Z,101547.22
2023-05-01T01:26:45.164Z,101543.2
2023-05-01T01:27:50.558Z,101541.56
2023-05-01T01:28:55.936Z,101546.92
2023-05-01T01:30:01.314Z,101540.58
2023-05-01T01:31:06.802Z,101541.37
2023-05-01T01:32:12.332Z,101539.05
2023-05-01T01:33:17.694Z,101540.3
2023-05-01T01:34:23.071Z,101544.12
2023-05-01T01:35:28.479Z,101533.24
2023-05-01T01:36:33.870Z,101540.3
2023-05-01T01:37:39.261Z,101538.19
2023-05-01T01:38:44.622Z,101541.73
2023-05-01T01:39:49.996Z,101540.09
2023-05-01T01:40:55.379Z,101538.88
2023-05-01T01:42:00.765Z,101537.54
2023-05-01T01:43:06.149Z,101536.3
2023-05-01T01:44:11.602Z,101534.5
2023-05-01T01:45:17.033Z,101528.16
2023-05-01T01:46:22.485Z,101537.64
2023-05-01T01:47:28.121Z,101538.88
2023-05-01T01:48:33.582Z,101541.2
2023-05-01T01:49:38.977Z,101534.6
2023-05-01T01:50:44.372Z,101538.39
2023-05-01T01:51:49.796Z,101541.02
2023-05-01T01:52:55.191Z,101536.92
2023-05-01T01:54:00.567Z,101538.39
2023-05-01T01:55:05.957Z,101536.64
2023-05-01T01:56:11.333Z,101535.14
2023-05-01T01:57:16.738Z,101527.19
2023-05-01T01:58:22.110Z,101533.54
2023-05-01T01:59:27.488Z,101529.16
2023-05-01T02:00:32.883Z,101535.93
2023-05-01T02:01:38.346Z,101532.62
2023-05-01T02:02:44.016Z,101535.3
2023-05-01T02:03:49.753Z,101534.94
2023-05-01T02:04:55.295Z,101535.36
2023-05-01T02:06:00.826Z,101534.38
2023-05-01T02:07:06.285Z,101530.7
2023-05-01T02:08:11.726Z,101533.03
2023-05-01T02:09:17.127Z,101538.97
2023-05-01T02:10:22.560Z,101531.62
2023-05-01T02:11:27.923Z,101532.42
2023-05-01T02:12:33.357Z,101538.11
2023-05-01T02:13:38.848Z,101535.52
2023-05-01T02:14:44.309Z,101529.8
2023-05-01T02:15:49.779Z,101531.62
2023-05-01T02:16:55.212Z,101526.55
2023-05-01T02:18:00.792Z,101533.77
2023-05-01T02:19:06.266Z,101527.19
2023-05-01T02:20:11.649Z,101525.48
2023-05-01T02:21:17.078Z,101522.33
2023-05-01T02:22:22.456Z,101519.77
2023-05-01T02:23:27.826Z,101518.78
2023-05-01T02:24:33.196Z,101518.94
2023-05-01T02:25:38.587Z,101520.12
2023-05-01T02:26:43.982Z,101523.43
2023-05-01T02:27:49.370Z,101523.53
2023-05-01T02:28:55.076Z,101517.81
2023-05-01T02:30:00.978Z,101520.55
2023-05-01T02:31:06.426Z,101523.59
2023-05-01T02:32:11.847Z,101517.94
2023-05-01T02:33:17.219Z,101520.77
2023-05-01T02:34:22.620Z,101522.11
2023-05-01T02:35:28.028Z,101520.77
2023-05-01T02:36:33.428Z,101516.81
2023-05-01T02:37:38.808Z,101512.86
2023-05-01T02:38:44.159Z,101518.56
2023-05-01T02:39:49.500Z,101517.29
2023-05-01T02:40:54.905Z,101515.95
2023-05-01T02:42:00.284Z,101513.84
2023-05-01T02:43:05.637Z,101507.59
2023-05-01T02:44:11.009Z,101508.93
2023-05-01T02:45:16.408Z,101516.88
2023-05-01T02:46:22.022Z,101506.72
2023-05-01T02:47:27.907Z,101507.65
2023-05-01T02:48:33.394Z,101505.38
2023-05-01T02:49:38.828Z,101502.7
2023-05-01T02:50:44.216Z,101501.72
2023-05-01T02:51:49.627Z,101503.05
2023-05-01T02:52:55.091Z,101503.83
2023-05-01T02:54:00.479Z,101499.8
2023-05-01T02:55:05.876Z,101503.05
2023-05-01T02:56:11.290Z,101493.73
2023-05-01T02:57:16.678Z,101499.61
2023-05-01T02:58:22.098Z,101500.44
2023-05-01T02:59:27.610Z,101500.79
2023-05-01T03:00:33.051Z,101492.39
2023-05-01T03:01:38.528Z,101494.72
2023-05-01T03:02:44.080Z,101492.97
2023-05-01T03:03:49.588Z,101492.55
2023-05-01T03:04:55.025Z,101492.14
2023-05-01T03:06:00.492Z,101487.25
2023-05-01T03:07:05.958Z,101488.53
2023-05-01T03:08:11.339Z,101487.77
2023-05-01T03:09:16.790Z,101484.98
2023-05-01T03:10:22.182Z,101488.73
2023-05-01T03:11:27.681Z,101485.78
2023-05-01T03:12:33.080Z,101490.35
2023-05-01T03:13:38.531Z,101486.84
2023-05-01T03:14:43.989Z,101484.58
2023-05-01T03:15:49.406Z,101482.31
2023-05-01T03:16:54.989Z,101481.1
2023-05-01T03:18:00.571Z,101482.38
2023-05-01T03:19:06.162Z,101480.47
2023-05-01T03:20:11.568Z,101483.02
2023-05-01T03:21:16.978Z,101481.77
2023-05-01T03:22:22.368Z,101478.22
2023-05-01T03:23:27.729Z,101475.7
2023-05-01T03:24:33.108Z,101477.39
2023-05-01T03:25:38.478Z,101472.16
2023-05-01T03:26:43.906Z,101477.94
2023-05-01T03:27:49.281Z,101475.34
2023-05-01T03:28:54.663Z,101475.83
2023-05-01T03:30:00.130Z,101476.75
2023-05-01T03:31:05.514Z,101473.14
2023-05-01T03:32:11.037Z,101468.71
2023-05-01T03:33:16.662Z,101470.98
2023-05-01T03:34:22.029Z,101468.71
2023-05-01T03:35:27.639Z,101475
2023-05-01T03:36:33.234Z,101476.05
2023-05-01T03:37:38.611Z,101468.77
2023-05-01T03:38:43.989Z,101472.44
2023-05-01T03:39:49.384Z,101472.02
2023-05-01T03:40:54.773Z,101471.16
2023-05-01T03:42:00.192Z,101464.46
2023-05-01T03:43:05.578Z,101467.23
2023-05-01T03:44:11.125Z,101469.91
2023-05-01T03:45:16.532Z,101471.25
2023-05-01T03:46:22.076Z,101469.91
2023-05-01T03:47:27.638Z,101472.59
2023-05-01T03:48:33.160Z,101473.94
2023-05-01T03:49:38.565Z,101469.56
2023-05-01T03:50:43.954Z,101472.24
2023-05-01T03:51:49.382Z,101471.73
2023-05-01T03:52:54.762Z,101474
2023-05-01T03:54:00.232Z,101471.8
2023-05-01T03:55:05.630Z,101469.35
2023-05-01T03:56:11.046Z,101467.15
2023-05-01T03:57:16.443Z,101469.12
2023-05-01T03:58:21.830Z,101472.38
2023-05-01T03:59:27.218Z,101477.32
2023-05-01T04:00:32.615Z,101469.82
2023-05-01T04:01:38.073Z,101473.66
2023-05-01T04:02:43.832Z,101474.07
2023-05-01T04:03:49.838Z,101475.25
2023-05-01T04:04:55.360Z,101471.39
2023-05-01T04:06:00.938Z,101470.27
2023-05-01T04:07:06.366Z,101469.83
2023-05-01T04:08:11.752Z,101474.42
2023-05-01T04:09:17.137Z,101469.19
2023-05-01T04:10:22.507Z,101465.33
2023-05-01T04:11:27.912Z,101472.09
2023-05-01T04:12:33.319Z,101470.63
2023-05-01T04:13:38.688Z,101471.8
2023-05-01T04:14:44.129Z,101466.31
2023-05-01T04:15:49.609Z,101467.84
2023-05-01T04:16:55.015Z,101465.89
2023-05-01T04:18:00.453Z,101466.02
2023-05-01T04:19:06.028Z,101464.2
2023-05-01T04:20:11.418Z,101470.04
2023-05-01T04:21:16.901Z,101466.31
2023-05-01T04:22:22.287Z,101468.7
2023-05-01T04:23:27.669Z,101469.12
2023-05-01T04:24:33.106Z,101477.03
2023-05-01T04:25:38.507Z,101470.04
2023-05-01T04:26:43.902Z,101473.36
2023-05-01T04:27:49.340Z,101468.48
2023-05-01T04:28:54.803Z,101473.94
2023-05-01T04:30:00.880Z,101460.66
2023-05-01T04:31:06.375Z,101467.07
2023-05-01T04:32:11.805Z,101467.58
2023-05-01T04:33:17.168Z,101464.13
2023-05-01T04:34:22.548Z,101464.9
2023-05-01T04:35:28.058Z,101467.72
2023-05-01T04:36:33.460Z,101462.41
2023-05-01T04:37:38.909Z,101465.8
2023-05-01T04:38:44.283Z,101465.26
2023-05-01T04:39:49.650Z,101465.38
2023-05-01T04:40:55.046Z,101462.98
2023-05-01T04:42:00.424Z,101465.61
2023-05-01T04:43:05.830Z,101470.45
2023-05-01T04:44:11.226Z,101467.65
2023-05-01T04:45:16.624Z,101469.82
2023-05-01T04:46:22.179Z,101464.63
2023-05-01T04:47:27.629Z,101464.91
2023-05-01T04:48:33.041Z,101460.73
2023-05-01T04:49:38.407Z,101465.33
2023-05-01T04:50:43.794Z,101464.2
2023-05-01T04:51:49.236Z,101470.45
2023-05-01T04:52:54.694Z,101469.7
2023-05-01T04:54:00.144Z,101469.98
2023-05-01T04:55:05.553Z,101470.53
2023-05-01T04:56:10.976Z,101465.11
2023-05-01T04:57:16.387Z,101467.36
2023-05-01T04:58:21.775Z,101460.53
2023-05-01T04:59:27.192Z,101464.39
2023-05-01T05:00:32.566Z,101463.69
2023-05-01T05:01:38.052Z,101465.95
2023-05-01T05:02:43.681Z,101464.96
2023-05-01T05:03:51.830Z,101468.5
2023-05-01T05:04:57.655Z,101460.66
2023-05-01T05:06:03.153Z,101463.56
2023-05-01T05:07:08.850Z,101468.27
2023-05-01T05:08:14.228Z,101459.66
2023-05-01T05:09:21.516Z,101459.12
2023-05-01T05:10:26.950Z,101458.42
2023-05-01T05:11:32.449Z,101462.22
2023-05-01T05:12:37.918Z,101464.33
2023-05-01T05:13:43.294Z,101458.14
2023-05-01T05:14:48.693Z,101460.59
2023-05-01T05:15:55.180Z,101458.83
2023-05-01T05:17:00.930Z,101461.7
2023-05-01T05:18:06.473Z,101457.49
2023-05-01T05:19:12.061Z,101465.02
2023-05-01T05:20:17.421Z,101457.55
2023-05-01T05:21:22.986Z,101460.8
2023-05-01T05:22:28.417Z,101456.78
2023-05-01T05:23:33.828Z,101459.17
2023-05-01T05:24:39.270Z,101455.95
2023-05-01T05:25:44.710Z,101455.64
2023-05-01T05:26:50.130Z,101457.84
2023-05-01T05:27:55.571Z,101463.77
2023-05-01T05:29:00.959Z,101459.75
2023-05-01T05:30:06.445Z,101457.15
2023-05-01T05:31:12.008Z,101456.92
2023-05-01T05:32:17.490Z,101457.2
2023-05-01T05:33:23.110Z,101461.22
2023-05-01T05:34:28.550Z,101459.88
2023-05-01T05:35:33.939Z,101463.42
2023-05-01T05:36:39.319Z,101459.75
2023-05-01T05:37:47.490Z,101465.53
2023-05-01T05:38:52.905Z,101466.72
2023-05-01T05:39:58.796Z,101457.91
2023-05-01T05:41:04.214Z,101469.05
2023-05-01T05:42:09.627Z,101459.66
2023-05-01T05:43:15.060Z,101456.86
2023-05-01T05:44:20.422Z,101463.14
2023-05-01T05:45:25.776Z,101456.86
2023-05-01T05:46:31.230Z,101464.03
2023-05-01T05:47:36.833Z,101459.25
2023-05-01T05:48:42.291Z,101454.88
2023-05-01T05:49:47.668Z,101458.13
2023-05-01T05:50:53.033Z,101452.41
2023-05-01T05:51:58.430Z,101456.94
2023-05-01T05:53:03.876Z,101451.23
2023-05-01T05:54:09.242Z,101459.17
2023-05-01T05:55:14.608Z,101457.84
2023-05-01T05:56:19.974Z,101457.84
2023-05-01T05:57:25.365Z,101458.28
2023-05-01T05:58:30.750Z,101451.07
2023-05-01T05:59:36.185Z,101450.24
2023-05-01T06:00:41.599Z,101446.13
2023-05-01T06:01:46.974Z,101445.65
2023-05-01T06:02:52.472Z,101453.69
2023-05-01T06:03:58.242Z,101448.59
2023-05-01T06:05:03.751Z,101451.56
2023-05-01T06:06:09.597Z,101445.84
2023-05-01T06:07:15.273Z,101442.75
2023-05-01T06:08:20.641Z,101446.14
2023-05-01T06:09:26.113Z,101444.03
2023-05-01T06:10:31.588Z,101447.06
2023-05-01T06:11:36.980Z,101443.94
2023-05-01T06:12:51.055Z,101438.16
2023-05-01T06:14:14.280Z,101440.63
2023-05-01T06:15:19.696Z,101436.59
2023-05-01T06:16:25.184Z,101440.63
2023-05-01T06:17:30.691Z,101437.46
2023-05-01T06:18:36.178Z,101442.76
2023-05-01T06:19:41.563Z,101435.91
2023-05-01T06:20:47.023Z,101437.3
2023-05-01T06:21:52.404Z,101432.88
2023-05-01T06:22:57.780Z,101432.81
2023-05-01T06:24:03.181Z,101435.84
2023-05-01T06:25:08.556Z,101434.91
2023-05-01T06:26:13.975Z,101431.76
2023-05-01T06:27:19.375Z,101433.45
2023-05-01T06:28:24.783Z,101424.55
2023-05-01T06:29:30.155Z,101423.08
2023-05-01T06:30:35.561Z,101431.13
2023-05-01T06:31:41.003Z,101428.44
2023-05-01T06:32:46.618Z,101427.45
2023-05-01T06:33:52.127Z,101429.84
2023-05-01T06:34:57.532Z,101432.52
2023-05-01T06:36:02.997Z,101437.37
2023-05-01T06:37:08.441Z,101428
2023-05-01T06:38:13.829Z,101423.5
2023-05-01T06:39:19.254Z,101422.92
2023-05-01T06:40:24.704Z,101424.67
2023-05-01T06:41:30.114Z,101428.22
2023-05-01T06:42:35.633Z,101424.14
2023-05-01T06:43:41.094Z,101418.84
2023-05-01T06:44:46.477Z,101422.8
2023-05-01T06:45:51.834Z,101426.37
2023-05-01T06:46:57.343Z,101425.48
2023-05-01T06:48:02.893Z,101423.21
2023-05-01T06:49:08.426Z,101420.53
2023-05-01T06:50:13.834Z,101421.88
2023-05-01T06:51:19.484Z,101414.81
2023-05-01T06:52:24.911Z,101424.8
2023-05-01T06:53:30.316Z,101426.16
2023-05-01T06:54:35.704Z,101421.43
2023-05-01T06:55:41.098Z,101424.88
2023-05-01T06:56:46.461Z,101424.53
2023-05-01T06:57:51.861Z,101416.84
2023-05-01T06:58:57.252Z,101414.98
2023-05-01T07:00:02.649Z,101414.44
2023-05-01T07:01:08.204Z,101411.82
2023-05-01T07:02:13.867Z,101412.69
2023-05-01T07:03:19.573Z,101407.35
2023-05-01T07:04:25.164Z,101412.77
2023-05-01T07:05:30.556Z,101409.25
2023-05-01T07:06:36.009Z,101412.84
2023-05-01T07:07:54.201Z,101409.97
2023-05-01T07:09:05.838Z,101414.81
2023-05-01T07:10:11.232Z,101408.84
2023-05-01T07:11:16.678Z,101418.27
2023-05-01T07:12:22.146Z,101407.01
2023-05-01T07:13:27.537Z,101414.37
2023-05-01T07:14:32.922Z,101410.22
2023-05-01T07:15:38.298Z,101412.39
2023-05-01T07:16:43.897Z,101411.14
2023-05-01T07:17:49.511Z,101408.74
2023-05-01T07:18:54.935Z,101400
2023-05-01T07:20:00.590Z,101405.98
2023-05-01T07:21:05.963Z,101406.05
2023-05-01T07:22:11.357Z,101401.48
2023-05-01T07:23:16.733Z,101402.66
2023-05-01T07:24:22.125Z,101402.87
2023-05-01T07:25:27.562Z,101404.85
2023-05-01T07:26:32.955Z,101408.98
2023-05-01T07:27:38.343Z,101410.06
2023-05-01T07:28:43.733Z,101404.27
2023-05-01T07:29:49.118Z,101399.83
2023-05-01T07:30:54.527Z,101398.98
2023-05-01T07:32:00.169Z,101403.25
2023-05-01T07:33:05.941Z,101406.91
2023-05-01T07:34:11.470Z,101398.17
2023-05-01T07:35:16.879Z,101397.88
2023-05-01T07:36:22.340Z,101398.92
2023-05-01T07:37:27.743Z,101393.48
2023-05-01T07:38:33.171Z,101398.38
2023-05-01T07:39:38.615Z,101399.7
2023-05-01T07:40:44.013Z,101399.75
2023-05-01T07:41:49.449Z,101403.51
2023-05-01T07:42:56.110Z,101397.23
2023-05-01T07:44:01.559Z,101400.19
2023-05-01T07:45:06.950Z,101397.8
2023-05-01T07:46:12.446Z,101397.16
2023-05-01T07:47:17.983Z,101401.52
2023-05-01T07:48:23.387Z,101390.88
2023-05-01T07:49:28.856Z,101390.05
2023-05-01T07:50:34.246Z,101395.87
2023-05-01T07:51:39.641Z,101380.73
2023-05-01T07:52:45.045Z,101389.87
2023-05-01T07:53:50.550Z,101388.18
2023-05-01T07:54:55.986Z,101379.67
2023-05-01T07:56:01.371Z,101371.77
2023-05-01T07:57:06.770Z,101387
2023-05-01T07:58:12.181Z,101375.99
2023-05-01T07:59:17.582Z,101380.01
2023-05-01T08:00:23.015Z,101380.36
2023-05-01T08:01:28.476Z,101383.77
2023-05-01T08:02:34.132Z,101384.04
2023-05-01T08:03:40.038Z,101375.5
2023-05-01T08:04:45.819Z,101368.96
2023-05-01T08:05:51.331Z,101371.7
2023-05-01T08:06:57.098Z,101376.48
2023-05-01T08:08:02.798Z,101367.47
2023-05-01T08:09:08.256Z,101361.34
2023-05-01T08:10:13.664Z,101371.34
2023-05-01T08:11:19.039Z,101364.71
2023-05-01T08:12:24.433Z,101368.73
2023-05-01T08:13:29.807Z,101364.77
2023-05-01T08:14:35.237Z,101362.45
2023-05-01T08:15:40.724Z,101365.64
2023-05-01T08:16:46.465Z,101364
2023-05-01T08:17:52.121Z,101361.84
2023-05-01T08:18:57.825Z,101358.17
2023-05-01T08:20:03.267Z,101361.84
2023-05-01T08:21:08.668Z,101363.59
2023-05-01T08:22:14.042Z,101361.89
2023-05-01T08:23:19.445Z,101363.92
2023-05-01T08:24:24.854Z,101361.48
2023-05-01T08:25:30.239Z,101358.52
2023-05-01T08:26:35.654Z,101363.02
2023-05-01T08:27:41.062Z,101359.87
2023-05-01T08:28:46.464Z,101360.84
2023-05-01T08:29:51.965Z,101355.7
2023-05-01T08:30:57.456Z,101354.16
2023-05-01T08:32:03.030Z,101354.34
2023-05-01T08:33:08.499Z,101357.11
2023-05-01T08:34:14.050Z,101354.44
2023-05-01T08:35:19.435Z,101356.31
2023-05-01T08:36:24.811Z,101361.66
2023-05-01T08:37:30.187Z,101351.27
2023-05-01T08:38:35.579Z,101352.66
2023-05-01T08:39:40.983Z,101348.65
2023-05-01T08:40:46.404Z,101347.38
2023-05-01T08:41:51.792Z,101349.62
2023-05-01T08:42:57.193Z,101345.05
2023-05-01T08:44:02.614Z,101347.66
2023-05-01T08:45:07.988Z,101346.03
2023-05-01T08:46:13.695Z,101354.42
2023-05-01T08:47:19.187Z,101343.77
2023-05-01T08:48:24.988Z,101348.3
2023-05-01T08:49:30.380Z,101342.88
2023-05-01T08:50:35.801Z,101346.95
2023-05-01T08:51:41.189Z,101340.74
2023-05-01T08:52:46.585Z,101347.78
2023-05-01T08:53:52.117Z,101346.03
2023-05-01T08:54:57.499Z,101341.74
2023-05-01T08:56:02.890Z,101342.08
2023-05-01T08:57:11.582Z,101337.95
2023-05-01T08:58:16.969Z,101333.52
2023-05-01T08:59:22.346Z,101341.45
2023-05-01T09:00:27.726Z,101336.19
2023-05-01T09:01:33.377Z,101330.9
2023-05-01T09:02:38.877Z,101330.39
2023-05-01T09:03:44.420Z,101324.27
2023-05-01T09:04:49.930Z,101335.74
2023-05-01T09:05:55.316Z,101331.31
2023-05-01T09:07:00.823Z,101331.38
2023-05-01T09:08:06.242Z,101327.52
2023-05-01T09:09:11.668Z,101327.09
2023-05-01T09:10:17.114Z,101318.36
2023-05-01T09:11:22.571Z,101316.93
2023-05-01T09:12:27.986Z,101316.81
2023-05-01T09:13:33.366Z,101317.64
2023-05-01T09:14:38.783Z,101313.72
2023-05-01T09:15:44.290Z,101319.42
2023-05-01T09:16:50.102Z,101300.59
2023-05-01T09:17:55.747Z,101313.15
2023-05-01T09:19:01.281Z,101305.89
2023-05-01T09:20:06.650Z,101305.18
2023-05-01T09:21:12.073Z,101310.77
2023-05-01T09:22:17.483Z,101311.24
2023-05-01T09:23:22.872Z,101313.15
2023-05-01T09:24:28.254Z,101309.41
2023-05-01T09:25:33.730Z,101306.1
2023-05-01T09:26:39.147Z,101311.94
2023-05-01T09:27:44.544Z,101310.41
2023-05-01T09:28:49.952Z,101322.16
2023-05-01T09:29:55.557Z,101307.21
2023-05-01T09:31:01.410Z,101308.84
2023-05-01T09:32:06.882Z,101303.84
2023-05-01T09:33:12.748Z,101310.89
2023-05-01T09:34:18.405Z,101298.49
2023-05-01T09:35:23.782Z,101299.83
2023-05-01T09:36:29.247Z,101311.66
2023-05-01T09:37:34.622Z,101301.45
2023-05-01T09:38:39.986Z,101307.29
2023-05-01T09:39:45.380Z,101301.73
2023-05-01T09:40:50.810Z,101302.64
2023-05-01T09:41:56.205Z,101297.72
2023-05-01T09:43:01.582Z,101297.95
2023-05-01T09:44:06.966Z,101304.13
2023-05-01T09:45:12.348Z,101304.2
2023-05-01T09:46:17.838Z,101293.84
2023-05-01T09:47:23.415Z,101295.18
2023-05-01T09:48:28.856Z,101290.98
2023-05-01T09:49:36.682Z,101286.05
2023-05-01T09:50:42.063Z,101280.63
2023-05-01T09:51:47.501Z,101277.5
2023-05-01T09:52:52.964Z,101284.2
2023-05-01T09:53:58.390Z,101276.61
2023-05-01T09:55:03.774Z,101278.5
2023-05-01T09:56:09.218Z,101268.66
2023-05-01T09:57:14.599Z,101268.14
2023-05-01T09:58:19.984Z,101266.65
2023-05-01T09:59:25.397Z,101273.57
2023-05-01T10:00:30.850Z,101268.28
2023-05-01T10:01:36.404Z,101274.14
2023-05-01T10:02:42.023Z,101280.11
2023-05-01T10:03:47.915Z,101270.26
2023-05-01T10:04:53.605Z,101275.45
2023-05-01T10:05:59.069Z,101265.67
2023-05-01T10:07:04.654Z,101273.23
2023-05-01T10:08:10.239Z,101273.28
2023-05-01T10:09:15.668Z,101269.62
2023-05-01T10:10:21.644Z,101266.95
2023-05-01T10:11:27.272Z,101264.11
2023-05-01T10:12:32.742Z,101267.23
2023-05-01T10:13:38.130Z,101264.56
2023-05-01T10:14:43.508Z,101268.42
2023-05-01T10:15:48.884Z,101263.48
2023-05-01T10:16:54.802Z,101262.59
2023-05-01T10:18:00.501Z,101249.83
2023-05-01T10:19:06.097Z,101254.67
2023-05-01T10:20:11.508Z,101257.14
2023-05-01T10:21:16.897Z,101250.95
2023-05-01T10:22:22.301Z,101252.64
2023-05-01T10:23:27.702Z,101253.98
2023-05-01T10:24:33.141Z,101241.52
2023-05-01T10:25:38.623Z,101237.56
2023-05-01T10:26:44.101Z,101240.59
2023-05-01T10:27:49.498Z,101244.61
2023-05-01T10:28:54.883Z,101226.79
2023-05-01T10:30:00.630Z,101235.66
2023-05-01T10:31:06.192Z,101242.28
2023-05-01T10:32:11.808Z,101231.16
2023-05-01T10:33:17.347Z,101228.48
2023-05-01T10:34:22.803Z,101231.51
2023-05-01T10:35:30.217Z,101227.56
2023-05-01T10:36:35.688Z,101239.67
2023-05-01T10:37:41.103Z,101243.63
2023-05-01T10:38:46.552Z,101236.93
2023-05-01T10:39:51.960Z,101242.22
2023-05-01T10:40:57.393Z,101230.65
2023-05-01T10:42:02.832Z,101231.51
2023-05-01T10:43:08.574Z,101231.86
2023-05-01T10:44:13.986Z,101236.42
2023-05-01T10:45:19.384Z,101225.64
2023-05-01T10:46:24.866Z,101227.63
2023-05-01T10:47:30.440Z,101224.53
2023-05-01T10:48:35.969Z,101234.19
2023-05-01T10:49:41.432Z,101208.97
2023-05-01T10:50:46.809Z,101222.55
2023-05-01T10:51:52.200Z,101219.11
2023-05-01T10:52:57.619Z,101219.3
2023-05-01T10:54:03.013Z,101210.66
2023-05-01T10:55:08.396Z,101213.18
2023-05-01T10:56:13.789Z,101215.56
2023-05-01T10:57:19.175Z,101214.45
2023-05-01T10:58:24.558Z,101210.15
2023-05-01T10:59:29.928Z,101209.89
2023-05-01T11:00:35.323Z,101209.38
2023-05-01T11:01:40.820Z,101209.89
2023-05-01T11:02:46.610Z,101201.41
2023-05-01T11:03:52.075Z,101198.95
2023-05-01T11:04:58.401Z,101201.92
2023-05-01T11:06:04.729Z,101184.17
2023-05-01T11:07:10.877Z,101196.28
2023-05-01T11:08:16.516Z,101192.77
2023-05-01T11:09:21.913Z,101186.91
2023-05-01T11:10:27.357Z,101191.44
2023-05-01T11:11:32.745Z,101194.17
2023-05-01T11:12:38.138Z,101188.98
2023-05-01T11:13:43.518Z,101193.83
2023-05-01T11:14:48.905Z,101192.48
2023-05-01T11:15:54.362Z,101185.95
2023-05-01T11:16:59.835Z,101185.5
2023-05-01T11:18:05.488Z,101181.36
2023-05-01T11:19:11.132Z,101179.96
2023-05-01T11:20:16.525Z,101181.3
2023-05-01T11:21:21.959Z,101184.74
2023-05-01T11:22:27.343Z,101189.81
2023-05-01T11:23:32.714Z,101191.41
2023-05-01T11:24:38.174Z,101181.2
2023-05-01T11:25:43.556Z,101171.36
2023-05-01T11:26:48.925Z,101168.39
2023-05-01T11:27:54.417Z,101167.89
2023-05-01T11:28:59.825Z,101160.08
2023-05-01T11:30:05.253Z,101163.27
2023-05-01T11:31:10.646Z,101166.61
2023-05-01T11:32:16.397Z,101167.06
2023-05-01T11:33:22.008Z,101162.47
2023-05-01T11:34:27.783Z,101162.31
2023-05-01T11:35:33.241Z,101166.61
2023-05-01T11:36:38.622Z,101167.82
2023-05-01T11:37:44.017Z,101168.72
2023-05-01T11:38:49.396Z,101168.17
2023-05-01T11:39:57.877Z,101164.28
2023-05-01T11:41:03.354Z,101163.59
2023-05-01T11:42:08.915Z,101156.55
2023-05-01T11:43:14.551Z,101155.84
2023-05-01T11:44:19.943Z,101158.23
2023-05-01T11:45:25.319Z,101153.29
2023-05-01T11:46:30.842Z,101152.59
2023-05-01T11:47:36.451Z,101155.08
2023-05-01T11:48:41.988Z,101145.83
2023-05-01T11:49:47.384Z,101142.33
2023-05-01T11:50:52.770Z,101136.23
2023-05-01T11:51:58.193Z,101138.44
2023-05-01T11:53:03.637Z,101138.78
2023-05-01T11:54:09.157Z,101136.52
2023-05-01T11:55:14.573Z,101139.71
2023-05-01T11:56:26.321Z,101139.97
2023-05-01T11:57:32.311Z,101134.96
2023-05-01T11:58:38.106Z,101135.31
2023-05-01T11:59:43.455Z,101137.58
2023-05-01T12:00:48.802Z,101136.65
2023-05-01T12:01:54.231Z,101138.63
2023-05-01T12:03:00.037Z,101136.88
2023-05-01T12:04:05.943Z,101131.52
2023-05-01T12:05:11.441Z,101130.59
2023-05-01T12:06:16.962Z,101134.48
2023-05-01T12:07:22.432Z,101122.5
2023-05-01T12:08:27.833Z,101117.91
2023-05-01T12:09:33.268Z,101118.2
2023-05-01T12:10:38.642Z,101108.76
2023-05-01T12:11:44.067Z,101106.5
2023-05-01T12:12:49.438Z,101110.09
2023-05-01T12:13:54.832Z,101103.12
2023-05-01T12:15:00.863Z,101099.96
2023-05-01T12:16:06.338Z,101103.18
2023-05-01T12:17:11.761Z,101104.27
2023-05-01T12:18:17.513Z,101099.27
2023-05-01T12:19:24.067Z,101102.89
2023-05-01T12:20:29.493Z,101094.95
2023-05-01T12:21:34.949Z,101098.81
2023-05-01T12:22:40.357Z,101095.59
2023-05-01T12:23:45.739Z,101098.47
2023-05-01T12:24:51.122Z,101091.59
2023-05-01T12:25:56.502Z,101089.55
2023-05-01T12:27:01.896Z,101088.45
2023-05-01T12:28:07.281Z,101098.69
2023-05-01T12:29:12.694Z,101086.77
2023-05-01T12:30:18.175Z,101089.31